• Join FlightAware (Why Join?)
  • Login
  • US Flag 
02:40AM EDT


 

Airport Tracker/Info


-or-


 

Live Flight TrackerFlight Track Log ✈ THA648 ✈ 13-Jun-2013 ✈ VTBS / BKK - RJFF / FUK

Flight Track Log - Related Links

Times and Time Zones

All times are in EDT time to prevent confusion due to time zone crossing. See the THA648 flight status page for this flight to view local times or setup timezone preferences in your user account.

Time Position Orientation Groundspeed Altitude Reporting Facility
EDT Latitude Longitude Course Direction KTS MPH feet Rate Location/Type
02:30PM 13.6990 100.7630 13° North 168 193 1,400  Level FlightAware
02:31PM 13.7170 100.7670 12° North 178 205 2,000 1,680 Climbing FlightAware
02:31PM 13.7520 100.7770 16° North 185 213 3,000 1,800 Climbing FlightAware
02:31PM 13.7620 100.7810 21° North 187 215 3,200 1,200 Climbing FlightAware
02:32PM 13.7680 100.7890 52° Northeast 185 213 3,500 1,140 Climbing FlightAware
02:32PM 13.7700 100.8000 79° East 190 219 3,600 540 Climbing FlightAware
02:32PM 13.7730 100.8280 84° East 221 254 3,900 720 Climbing FlightAware
02:33PM 13.7750 100.8620 87° East 257 296 4,300 1,620 Climbing FlightAware
02:33PM 13.7700 100.9130 96° East 275 316 5,700 2,100 Climbing FlightAware
02:34PM 13.7650 100.9500 98° East 283 326 6,600 2,100 Climbing FlightAware
02:34PM 13.7620 100.9860 95° East 285 328 7,600 2,100 Climbing FlightAware
02:35PM 13.7600 101.0040 97° East 291 335 8,000 1,500 Climbing FlightAware
02:35PM 13.7610 101.0640 89° East 300 345 9,000 1,080 Climbing FlightAware
02:36PM 13.7640 101.1060 86° East 303 349 9,300 300 Climbing FlightAware
02:36PM 13.7760 101.1420 71° East 303 349 9,300 420 Level FlightAware
02:37PM 13.7920 101.1810 67° East 304 350 9,700 1,200 Climbing FlightAware
02:37PM 13.8140 101.2370 68° East 323 372 10,700 1,080 Climbing FlightAware
02:38PM 13.8360 101.2970 69° East 358 412 11,200 960 Climbing FlightAware
02:39PM 13.8600 101.3620 69° East 379 436 12,000 1,560 Climbing FlightAware
02:39PM 13.8900 101.4390 68° East 384 442 13,400 1,860 Climbing FlightAware
02:40PM 13.9190 101.5160 69° East 389 448 14,800 1,740 Climbing FlightAware
02:41PM 13.9460 101.5880 69° East 394 453 15,900 1,560 Climbing FlightAware
02:41PM 13.9730 101.6580 68° East 397 457 17,000 1,920 Climbing FlightAware
02:42PM 13.9990 101.7270 69° East 387 445 18,500 2,100 Climbing FlightAware
02:43PM 14.0290 101.8060 69° East 382 440 20,000 1,680 Climbing FlightAware
02:44PM 14.0560 101.8780 69° East 385 443 21,000 1,200 Climbing FlightAware
02:44PM 14.0830 101.9500 69° East 395 455 21,700 540 Climbing FlightAware
02:45PM 14.1080 102.0160 69° East 412 474 21,900 480 Climbing FlightAware
02:46PM 14.1530 102.1370 69° East 432 497 22,600 960 Climbing FlightAware
02:47PM 14.1930 102.2420 69° East 438 504 23,500 900 Climbing FlightAware
02:48PM 14.2160 102.3040 69° East 443 510 23,900 900 Climbing FlightAware
02:48PM 14.2530 102.4030 69° East 445 512 24,800 780 Climbing FlightAware
02:49PM 14.2920 102.5130 70° East 447 514 25,200 180 Climbing FlightAware
02:50PM 14.3350 102.6340 70° East 447 514 25,200  Level FlightAware
02:51PM 14.3560 102.6920 70° East 447 514 25,200  Level FlightAware
02:52PM 14.3860 102.7770 70° East 447 514 25,200  Level FlightAware
02:52PM 14.4090 102.8430 70° East 447 514 25,200 120 Level FlightAware
02:55PM 14.5755 103.0318 48° Northeast  Level Estimated
02:56PM 14.6561 103.1232 48° Northeast  Level Estimated
02:57PM 14.7366 103.2147 48° Northeast  Level Estimated
02:58PM 14.8170 103.3063 48° Northeast  Level Estimated
02:59PM 14.8974 103.3979 48° Northeast  Level Estimated
03:00PM 14.9778 103.4896 48° Northeast  Level Estimated
03:01PM 15.0582 103.5814 48° Northeast  Level Estimated
03:02PM 15.1385 103.6732 48° Northeast  Level Estimated
03:03PM 15.2188 103.7651 48° Northeast  Level Estimated
03:04PM 15.2990 103.8571 48° Northeast  Level Estimated
03:05PM 15.3792 103.9492 48° Northeast  Level Estimated
03:06PM 15.4594 104.0413 48° Northeast  Level Estimated
03:07PM 15.5395 104.1335 48° Northeast  Level Estimated
03:08PM 15.6196 104.2258 48° Northeast  Level Estimated
03:09PM 15.6996 104.3181 48° Northeast  Level Estimated
03:10PM 15.7796 104.4105 48° Northeast  Level Estimated
03:11PM 15.8596 104.5030 48° Northeast  Level Estimated
03:12PM 15.9395 104.5956 48° Northeast  Level Estimated
03:13PM 16.0194 104.6882 48° Northeast  Level Estimated
03:14PM 16.0993 104.7809 48° Northeast  Level Estimated
03:15PM 16.1791 104.8737 48° Northeast  Level Estimated
03:16PM 16.2589 104.9665 48° Northeast  Level Estimated
03:17PM 16.3386 105.0595 48° Northeast  Level Estimated
03:18PM 16.4183 105.1525 48° Northeast  Level Estimated
03:19PM 16.4979 105.2456 48° Northeast  Level Estimated
03:20PM 16.5775 105.3387 48° Northeast  Level Estimated
03:21PM 16.6571 105.4320 48° Northeast  Level Estimated
03:22PM 16.7366 105.5253 48° Northeast  Level Estimated
03:23PM 16.8161 105.6187 48° Northeast  Level Estimated
03:24PM 16.8955 105.7121 48° Northeast  Level Estimated
03:25PM 16.9750 105.8057 48° Northeast  Level Estimated
03:26PM 17.0543 105.8993 48° Northeast  Level Estimated
03:27PM 17.1336 105.9930 48° Northeast  Level Estimated
03:28PM 17.2129 106.0868 48° Northeast  Level Estimated
03:29PM 17.2921 106.1807 49° Northeast  Level Estimated
03:30PM 17.3713 106.2746 49° Northeast  Level Estimated
03:31PM 17.4504 106.3687 49° Northeast  Level Estimated
03:32PM 17.5295 106.4628 49° Northeast  Level Estimated
03:33PM 17.6086 106.5570 49° Northeast  Level Estimated
03:34PM 17.6876 106.6513 49° Northeast  Level Estimated
03:35PM 17.7665 106.7456 49° Northeast  Level Estimated
03:36PM 17.8454 106.8400 49° Northeast  Level Estimated
03:37PM 17.9243 106.9346 49° Northeast  Level Estimated
03:38PM 18.0031 107.0292 49° Northeast  Level Estimated
03:39PM 18.0819 107.1239 49° Northeast  Level Estimated
03:40PM 18.1607 107.2187 49° Northeast  Level Estimated
03:41PM 18.2393 107.3135 49° Northeast  Level Estimated
03:42PM 18.3180 107.4085 49° Northeast  Level Estimated
03:43PM 18.3966 107.5035 49° Northeast  Level Estimated
03:44PM 18.4751 107.5987 49° Northeast  Level Estimated
03:45PM 18.5536 107.6939 49° Northeast  Level Estimated
03:46PM 18.6320 107.7892 49° Northeast  Level Estimated
03:47PM 18.7104 107.8846 49° Northeast  Level Estimated
03:48PM 18.7888 107.9800 49° Northeast  Level Estimated
03:49PM 18.8671 108.0756 49° Northeast  Level Estimated
03:50PM 18.9454 108.1713 49° Northeast  Level Estimated
03:51PM 19.0236 108.2670 49° Northeast  Level Estimated
03:52PM 19.1017 108.3628 49° Northeast  Level Estimated
03:53PM 19.1798 108.4588 49° Northeast  Level Estimated
03:54PM 19.2579 108.5548 49° Northeast  Level Estimated
03:55PM 19.3359 108.6509 49° Northeast  Level Estimated
03:56PM 19.4139 108.7471 49° Northeast  Level Estimated
03:57PM 19.4918 108.8434 49° Northeast  Level Estimated
03:58PM 19.5696 108.9398 49° Northeast  Level Estimated
03:59PM 19.6474 109.0363 49° Northeast  Level Estimated
04:00PM 19.7252 109.1328 49° Northeast  Level Estimated
04:01PM 19.8029 109.2295 49° Northeast  Level Estimated
04:02PM 19.8805 109.3263 50° Northeast  Level Estimated
04:03PM 19.9581 109.4231 50° Northeast  Level Estimated
04:04PM 20.0357 109.5201 50° Northeast  Level Estimated
04:05PM 20.1131 109.6171 50° Northeast  Level Estimated
04:06PM 20.1906 109.7142 50° Northeast  Level Estimated
04:07PM 20.2680 109.8115 50° Northeast  Level Estimated
04:08PM 20.3453 109.9088 50° Northeast  Level Estimated
04:09PM 20.4226 110.0063 50° Northeast  Level Estimated
04:10PM 20.4998 110.1038 50° Northeast  Level Estimated
04:11PM 20.5770 110.2014 50° Northeast  Level Estimated
04:12PM 20.6541 110.2991 50° Northeast  Level Estimated
04:13PM 20.7311 110.3970 50° Northeast  Level Estimated
04:14PM 20.8081 110.4949 50° Northeast  Level Estimated
04:15PM 20.8851 110.5929 50° Northeast  Level Estimated
04:16PM 20.9620 110.6911 50° Northeast  Level Estimated
04:17PM 21.0388 110.7893 50° Northeast  Level Estimated
04:18PM 21.1156 110.8876 50° Northeast  Level Estimated
04:19PM 21.1923 110.9861 50° Northeast  Level Estimated
04:20PM 21.2690 111.0846 50° Northeast  Level Estimated
04:21PM 21.3456 111.1832 50° Northeast  Level Estimated
04:21PM 20.1130 112.9410 50° Northeast 474 545 37,000  Level FlightAware
04:21PM 20.1780 113.0140 47° Northeast 473 544 37,000  Level FlightAware
04:22PM 20.2440 113.0880 46° Northeast 474 545 37,000  Level FlightAware
04:23PM 20.3110 113.1640 47° Northeast 476 548 37,000  Level FlightAware
04:23PM 20.3710 113.2310 46° Northeast 476 548 37,000  Level FlightAware
04:24PM 20.4330 113.3110 50° Northeast 473 544 37,000  Level FlightAware
04:25PM 20.4790 113.3800 55° Northeast 475 547 37,000  Level FlightAware
04:26PM 20.5470 113.4800 54° Northeast 475 547 37,000  Level FlightAware
04:27PM 20.6210 113.5890 54° Northeast 481 554 37,000  Level FlightAware
04:27PM 20.6790 113.6660 51° Northeast 481 554 37,000  Level FlightAware
04:28PM 20.7220 113.7230 51° Northeast 481 554 37,000  Level FlightAware
04:29PM 20.7790 113.7980 51° Northeast 481 554 37,000  Level FlightAware
04:30PM 20.8240 113.8580 51° Northeast 481 554 37,000  Level FlightAware
04:30PM 20.8670 113.9140 51° Northeast 481 554 37,000  Level FlightAware
04:31PM 20.9860 114.0630 49° Northeast 479 551 37,000  Level FlightAware
04:32PM 21.0610 114.1640 51° Northeast 479 551 37,000  Level FlightAware
04:33PM 21.1080 114.2440 58° Northeast 477 549 37,000  Level FlightAware
04:33PM 21.1580 114.3290 58° Northeast 476 548 37,000  Level FlightAware
04:34PM 21.2050 114.4040 56° Northeast 477 549 37,000  Level FlightAware
04:35PM 21.2850 114.5200 53° Northeast 480 552 37,000  Level FlightAware
04:36PM 21.2970 114.6380 84° East 479 551 37,000  Level FlightAware
04:37PM 21.3130 114.7090 76° East 479 551 37,000  Level FlightAware
04:37PM 21.3340 114.7990 76° East 479 551 37,000  Level FlightAware
04:38PM 21.3580 114.9630 81° East 37,000  Level FlightAware
04:39PM 21.3910 115.0920 75° East 485 558 37,000  Level FlightAware
04:40PM 21.4110 115.1710 75° East 485 558 37,000  Level FlightAware
04:40PM 21.4280 115.2410 75° East 485 558 37,000  Level FlightAware
04:41PM 21.4520 115.3380 75° East 485 558 37,000  Level FlightAware
04:42PM 21.4700 115.4090 75° East 485 558 37,000  Level FlightAware
04:43PM 21.4930 115.5000 75° East 485 558 37,000  Level FlightAware
04:43PM 21.5150 115.5910 75° East 485 558 37,000  Level FlightAware
04:44PM 21.5340 115.6680 75° East 485 558 37,000  Level FlightAware
04:45PM 21.5520 115.7400 75° East 485 558 37,000  Level FlightAware
04:46PM 21.5840 115.8660 75° East 485 558 37,000  Level FlightAware
04:46PM 21.6040 115.9480 75° East 485 558 37,000  Level FlightAware
04:47PM 21.6220 116.0210 75° East 485 558 37,000  Level FlightAware
04:48PM 21.6450 116.1120 75° East 485 558 37,000  Level FlightAware
04:48PM 21.6640 116.1870 75° East 485 558 37,000  Level FlightAware
04:51PM 21.8504 116.3779 44° Northeast  Level Estimated
04:52PM 21.9370 116.4668 44° Northeast  Level Estimated
04:53PM 22.0236 116.5558 44° Northeast  Level Estimated
04:54PM 22.1101 116.6450 44° Northeast  Level Estimated
04:55PM 22.1966 116.7343 44° Northeast  Level Estimated
04:55PM 21.9470 117.3160 44° Northeast 479 551 37,000  Level FlightAware
04:56PM 21.9660 117.3920 75° East 478 550 37,000  Level FlightAware
04:56PM 21.9980 117.4980 72° East 479 551 37,000  Level FlightAware
04:57PM 22.0360 117.5790 63° Northeast 482 555 37,000  Level FlightAware
04:58PM 22.0960 117.6840 58° Northeast 484 557 37,000  Level FlightAware
04:58PM 22.1240 117.7330 58° Northeast 484 557 37,000  Level FlightAware
04:59PM 22.1770 117.8290 59° Northeast 487 560 37,000  Level FlightAware
05:00PM 22.2240 117.9100 58° Northeast 488 562 37,000  Level FlightAware
05:00PM 22.2760 118.0030 59° Northeast 489 563 37,000  Level FlightAware
05:01PM 22.3270 118.0900 58° Northeast 489 563 37,000  Level FlightAware
05:02PM 22.3770 118.1750 58° Northeast 491 565 37,000  Level FlightAware
05:02PM 22.4320 118.2710 58° Northeast 490 564 37,000  Level FlightAware
05:03PM 22.4780 118.3530 59° Northeast 489 563 37,000  Level FlightAware
05:04PM 22.5280 118.4410 58° Northeast 489 563 37,000  Level FlightAware
05:05PM 22.5790 118.5310 58° Northeast 489 563 37,000  Level FlightAware
05:05PM 22.6310 118.6220 58° Northeast 490 564 37,000  Level FlightAware
05:06PM 22.6800 118.7090 59° Northeast 491 565 37,000  Level FlightAware
05:07PM 22.7280 118.7930 58° Northeast 491 565 37,000  Level FlightAware
05:07PM 22.7710 118.8680 58° Northeast 491 565 37,000  Level FlightAware
05:08PM 22.8180 118.9520 59° Northeast 491 565 37,000  Level FlightAware
05:09PM 22.8790 119.0600 58° Northeast 490 564 37,000  Level FlightAware
05:09PM 22.9300 119.1500 58° Northeast 488 562 37,000  Level FlightAware
05:10PM 22.9960 119.2680 59° Northeast 485 558 37,000  Level FlightAware
05:11PM 23.0610 119.3840 59° Northeast 482 555 37,000  Level FlightAware
05:12PM 23.1110 119.4730 59° Northeast 482 555 37,000  Level FlightAware
05:13PM 23.1580 119.5570 59° Northeast 481 554 37,000  Level FlightAware
05:13PM 23.2040 119.6390 59° Northeast 481 554 37,000  Level FlightAware
05:14PM 23.2550 119.7300 59° Northeast 480 552 37,000  Level FlightAware
05:15PM 23.3200 119.8460 59° Northeast 480 552 37,000  Level FlightAware
05:16PM 23.3660 119.9190 56° Northeast 485 558 37,000  Level FlightAware
05:16PM 23.4330 119.9980 47° Northeast 488 562 37,000  Level FlightAware
05:17PM 23.5110 120.0770 43° Northeast 489 563 37,000  Level FlightAware
05:18PM 23.5660 120.1340 44° Northeast 490 564 37,000  Level FlightAware
05:19PM 23.6460 120.2160 43° Northeast 493 567 37,000  Level FlightAware
05:19PM 23.7130 120.2850 43° Northeast 497 572 37,000  Level FlightAware
05:20PM 23.7860 120.3610 44° Northeast 499 574 37,000  Level FlightAware
05:21PM 23.8520 120.4300 44° Northeast 500 575 37,000  Level FlightAware
05:21PM 23.9180 120.4990 44° Northeast 500 575 37,000  Level FlightAware
05:22PM 23.9950 120.5800 44° Northeast 502 578 37,000  Level FlightAware
05:23PM 24.0640 120.6530 44° Northeast 503 579 37,000 120 Level FlightAware
05:23PM 24.1370 120.7300 44° Northeast 504 580 37,200 420 Climbing FlightAware
05:24PM 24.2050 120.8020 44° Northeast 508 585 37,600 600 Climbing FlightAware
05:25PM 24.2730 120.8740 44° Northeast 510 587 38,000 660 Climbing FlightAware
05:26PM 24.3510 120.9570 44° Northeast 507 583 38,600 660 Climbing FlightAware
05:26PM 24.4240 121.0380 45° Northeast 504 580 39,000 300 Climbing FlightAware
05:27PM 24.4760 121.1100 52° Northeast 504 580 39,000  Level FlightAware
05:28PM 24.5400 121.1980 51° Northeast 506 582 39,000  Level FlightAware
05:28PM 24.6050 121.2870 51° Northeast 505 581 39,000  Level FlightAware
05:29PM 24.6880 121.4020 52° Northeast 505 581 39,000  Level FlightAware
05:30PM 24.7510 121.4870 51° Northeast 505 581 39,000  Level FlightAware
05:31PM 24.8250 121.5930 52° Northeast 504 580 39,000  Level FlightAware
05:32PM 24.8810 121.6710 52° Northeast 504 580 39,000  Level FlightAware
05:32PM 24.9380 121.7480 51° Northeast 503 579 39,000  Level FlightAware
05:33PM 25.0060 121.8320 48° Northeast 502 578 39,000  Level FlightAware
05:34PM 25.0700 121.9110 48° Northeast 501 577 39,000  Level FlightAware
05:34PM 25.1380 121.9990 50° Northeast 498 573 39,000  Level FlightAware
05:35PM 25.2250 122.1130 50° Northeast 501 577 39,000  Level FlightAware
05:36PM 25.2890 122.1950 49° Northeast 500 575 39,000  Level FlightAware
05:37PM 25.3510 122.2760 50° Northeast 500 575 39,000  Level FlightAware
05:37PM 25.4170 122.3620 50° Northeast 501 577 39,000  Level FlightAware
05:38PM 25.4780 122.4410 49° Northeast 500 575 39,000  Level FlightAware
05:39PM 25.5430 122.5270 50° Northeast 499 574 39,000  Level FlightAware
05:40PM 25.6070 122.6090 49° Northeast 501 577 39,000  Level FlightAware
05:40PM 25.6700 122.6920 50° Northeast 499 574 39,000  Level FlightAware
05:41PM 25.7280 122.7680 50° Northeast 497 572 39,000  Level FlightAware
05:42PM 25.7940 122.8540 50° Northeast 494 568 39,000  Level FlightAware
05:42PM 25.8540 122.9320 49° Northeast 493 567 39,000  Level FlightAware
05:43PM 25.9210 123.0200 50° Northeast 491 565 39,000  Level FlightAware
05:44PM 25.9780 123.0950 50° Northeast 489 563 39,000  Level FlightAware
05:44PM 26.0360 123.1720 50° Northeast 488 562 39,000  Level FlightAware
05:45PM 26.1240 123.2870 50° Northeast 486 559 39,000  Level FlightAware
05:46PM 26.1850 123.3690 50° Northeast 484 557 39,000  Level FlightAware
05:47PM 26.2430 123.4460 50° Northeast 484 557 39,000  Level FlightAware
05:47PM 26.2980 123.5190 50° Northeast 484 557 39,000  Level FlightAware
05:48PM 26.3580 123.5980 50° Northeast 484 557 39,000  Level FlightAware
05:49PM 26.4210 123.6830 50° Northeast 484 557 39,000  Level FlightAware
05:50PM 26.4780 123.7580 50° Northeast 483 556 39,000  Level FlightAware
05:50PM 26.5190 123.8130 50° Northeast 485 558 39,000  Level FlightAware
05:51PM 26.5920 123.9110 50° Northeast 485 558 39,000  Level FlightAware
05:52PM 26.6530 123.9930 50° Northeast 485 558 39,000  Level FlightAware
05:52PM 26.7350 124.1020 50° Northeast 485 558 39,000  Level FlightAware
05:53PM 26.7920 124.1790 50° Northeast 485 558 39,000  Level FlightAware
05:54PM 26.8340 124.2350 50° Northeast 485 558 39,000  Level FlightAware
05:55PM 26.8940 124.3150 50° Northeast 485 558 39,000  Level FlightAware
05:56PM 26.9620 124.4050 50° Northeast 485 558 39,000  Level FlightAware
05:56PM 27.0060 124.4640 50° Northeast 485 558 39,000  Level FlightAware
05:57PM 27.0630 124.5410 50° Northeast 485 558 39,000  Level FlightAware
05:58PM 27.1070 124.6000 50° Northeast 485 558 39,000  Level FlightAware
05:58PM 27.1650 124.6780 50° Northeast 485 558 39,000  Level FlightAware
05:59PM 27.2360 124.7730 50° Northeast 485 558 39,000  Level FlightAware
06:00PM 27.3000 124.8580 50° Northeast 485 558 39,000  Level FlightAware
06:01PM 27.3570 124.9360 51° Northeast 485 558 39,000  Level FlightAware
06:02PM 27.4020 124.9950 49° Northeast 485 558 39,000  Level FlightAware
06:02PM 27.4620 125.0760 50° Northeast 485 558 39,000  Level FlightAware
06:05PM 27.6723 125.2470 36° Northeast  Level Estimated
06:06PM 27.7693 125.3262 36° Northeast  Level Estimated
06:07PM 27.8662 125.4054 36° Northeast  Level Estimated
06:08PM 27.9631 125.4849 36° Northeast  Level Estimated
06:09PM 28.0599 125.5645 36° Northeast  Level Estimated
06:10PM 28.1567 125.6442 36° Northeast  Level Estimated
06:11PM 28.2534 125.7240 36° Northeast  Level Estimated
06:12PM 28.3501 125.8040 36° Northeast  Level Estimated
06:13PM 28.4468 125.8842 36° Northeast  Level Estimated
06:14PM 28.5434 125.9645 36° Northeast  Level Estimated
06:15PM 28.6400 126.0449 36° Northeast  Level Estimated
06:16PM 28.7365 126.1255 36° Northeast  Level Estimated
06:17PM 28.8329 126.2063 36° Northeast  Level Estimated
06:18PM 28.9293 126.2872 36° Northeast  Level Estimated
06:19PM 29.0257 126.3682 36° Northeast  Level Estimated
06:20PM 29.1220 126.4494 36° Northeast  Level Estimated
06:21PM 29.2183 126.5307 36° Northeast  Level Estimated
06:22PM 29.3145 126.6123 36° Northeast  Level Estimated
06:23PM 29.4107 126.6939 36° Northeast  Level Estimated
06:24PM 29.5068 126.7757 37° Northeast  Level Estimated
06:25PM 29.6029 126.8577 37° Northeast  Level Estimated
06:26PM 29.6989 126.9398 37° Northeast  Level Estimated
06:27PM 29.7949 127.0221 37° Northeast  Level Estimated
06:28PM 29.8908 127.1045 37° Northeast  Level Estimated
06:29PM 29.9867 127.1871 37° Northeast  Level Estimated
06:30PM 30.0825 127.2699 37° Northeast  Level Estimated
06:31PM 30.1782 127.3528 37° Northeast  Level Estimated
06:32PM 30.2740 127.4358 37° Northeast  Level Estimated
06:33PM 30.3696 127.5191 37° Northeast  Level Estimated
06:34PM 30.4652 127.6025 37° Northeast  Level Estimated
06:35PM 30.5608 127.6860 37° Northeast  Level Estimated
06:36PM 30.6563 127.7698 37° Northeast  Level Estimated
06:37PM 30.7517 127.8537 37° Northeast  Level Estimated
06:38PM 30.8471 127.9377 37° Northeast  Level Estimated
06:39PM 30.9424 128.0220 37° Northeast  Level Estimated
06:40PM 31.0377 128.1064 37° Northeast  Level Estimated
06:41PM 31.1329 128.1909 37° Northeast  Level Estimated
06:42PM 31.2281 128.2757 37° Northeast  Level Estimated
06:43PM 31.3232 128.3606 37° Northeast  Level Estimated
06:44PM 31.4183 128.4457 37° Northeast  Level Estimated
06:45PM 31.5133 128.5309 37° Northeast  Level Estimated
06:45PM 31.3400 130.1050 37° Northeast 454 522 39,000  Level FlightAware
06:46PM 31.6082 128.6163 37° Northeast  Level Estimated
06:46PM 31.4700 130.1150 North 442 509 39,000  Level FlightAware
06:47PM 31.5790 130.0990 353° North 443 510 39,000  Level FlightAware
06:48PM 31.6620 130.0870 353° North 445 512 39,000  Level FlightAware
06:48PM 31.7400 130.0760 353° North 446 513 39,000 -120 Level FlightAware
06:49PM 31.8690 130.0570 353° North 449 517 38,800 -1,140 Descending FlightAware
06:50PM 31.9470 130.0460 353° North 456 525 37,100 -2,640 Descending FlightAware
06:51PM 32.0440 130.0310 353° North 458 527 35,100 -2,460 Descending FlightAware
06:52PM 32.1320 130.0190 353° North 449 517 33,800 -1,920 Descending FlightAware
06:52PM 32.2400 130.0030 353° North 440 506 32,100 -1,920 Descending FlightAware
06:53PM 32.3300 129.9900 353° North 434 499 30,600 -2,520 Descending FlightAware
06:54PM 32.4140 129.9770 353° North 437 503 28,600 -2,400 Descending FlightAware
06:55PM 32.5020 129.9640 353° North 437 503 27,400 -1,680 Descending FlightAware
06:55PM 32.5820 129.9520 353° North 419 482 26,300 -1,740 Descending FlightAware
06:56PM 32.6690 129.9390 353° North 419 482 25,000 -1,740 Descending FlightAware
06:57PM 32.7460 129.9280 353° North 404 465 23,900 -1,680 Descending FlightAware
06:57PM 32.8230 129.9170 353° North 406 467 22,800 -1,500 Descending FlightAware
06:58PM 32.9030 129.9050 353° North 393 452 21,800 -1,200 Descending FlightAware
06:59PM 33.0090 129.8880 352° North 391 450 20,700 -720 Descending FlightAware
07:00PM 33.0660 129.8780 352° North 391 450 20,700 -2,280 Level FlightAware
07:01PM 33.1300 129.8700 354° North 404 465 17,400 -2,520 Descending FlightAware
07:01PM 33.2350 129.8540 353° North 404 465 16,700 -2,760 Descending FlightAware
07:02PM 33.2830 129.8710 16° North 399 459 14,700 -3,300 Descending FlightAware
07:02PM 33.3530 129.8780 North 393 452 13,600 -1,500 Descending FlightAware
07:03PM 33.4190 129.8850 North 386 444 12,600 -1,500 Descending FlightAware
07:04PM 33.5310 129.8950 North 362 417 11,200 -1,080 Descending FlightAware
07:05PM 33.5990 129.9020 North 334 384 10,800 -840 Descending FlightAware
07:05PM 33.6550 129.9260 20° North 315 362 10,100 -1,380 Descending FlightAware
07:05PM 33.6640 129.9420 56° Northeast 313 360 9,700 -1,800 Descending FlightAware
07:06PM 33.6730 129.9640 64° Northeast 310 357 9,300 -1,620 Descending FlightAware
07:06PM 33.6880 130.0000 63° Northeast 303 349 8,600 -1,320 Descending FlightAware
07:07PM 33.7100 130.0290 48° Northeast 295 339 8,300 -600 Descending FlightAware
07:07PM 33.7410 130.0370 12° North 280 322 8,200 -360 Descending FlightAware
07:07PM 33.7810 130.0400 North 264 304 8,000 -480 Descending FlightAware
07:08PM 33.7860 130.0410 North 261 300 7,900 -480 Descending FlightAware
07:08PM 33.8200 130.0430 North 251 289 7,700 -720 Descending FlightAware
07:09PM 33.8690 130.0470 North 249 287 7,100 -900 Descending FlightAware
07:09PM 33.9080 130.0500 North 246 283 6,700 -720 Descending FlightAware
07:09PM 33.9260 130.0580 20° North 246 283 6,600 -540 Descending FlightAware
07:10PM 33.9510 130.0850 42° Northeast 236 272 6,300 -540 Descending FlightAware
07:10PM 33.9660 130.1170 61° Northeast 218 251 6,100 -660 Descending FlightAware
07:11PM 33.9720 130.1460 76° East 213 245 5,700 -1,020 Descending FlightAware
07:11PM 33.9680 130.1580 112° Southeast 206 237 5,500 -780 Descending FlightAware
07:12PM 33.9500 130.1850 129° Southeast 205 236 5,200 -540 Descending FlightAware
07:12PM 33.9300 130.2110 133° Southeast 204 235 5,000 -480 Descending FlightAware
07:12PM 33.9120 130.2270 144° Southeast 206 237 4,800 -600 Descending FlightAware
07:13PM 33.8900 130.2420 150° Southeast 205 236 4,500 -720 Descending FlightAware
07:14PM 33.8610 130.2620 150° Southeast 207 238 4,100 -780 Descending FlightAware
07:14PM 33.8550 130.2670 145° Southeast 207 238 4,000 -660 Descending FlightAware
07:14PM 33.8280 130.2850 151° Southeast 206 237 3,700 -600 Descending FlightAware
07:15PM 33.7880 130.3120 151° Southeast 206 237 3,200 -600 Descending FlightAware
07:16PM 33.7630 130.3290 151° Southeast 206 237 2,900 -480 Descending FlightAware
07:16PM 33.7500 130.3380 150° Southeast 202 232 2,800 -540 Descending FlightAware
07:17PM 33.7170 130.3610 150° Southeast 202 232 2,400 -720 Descending FlightAware
07:17PM 33.6850 130.3830 150° Southeast 182 209 2,000 -720 Descending FlightAware
07:18PM 33.6640 130.3970 151° Southeast 171 197 1,600 -960 Descending FlightAware
07:18PM 33.6500 130.4070 149° Southeast 155 178 1,200 -840 Descending FlightAware
07:19PM 33.6330 130.4180 152° Southeast 143 165 900 -720 Descending FlightAware
07:19PM 33.6220 130.4260 149° Southeast 145 167 600 -360 Descending FlightAware
07:19PM 33.6060 130.4370 150° Southeast 145 167 600  Level FlightAware
07:22PM 33.5866 130.4502 150° Southeast  Level Estimated
07:23PM 33.5866 130.4502 248° West  Level Estimated
07:24PM 33.5866 130.4502 248° West  Level Estimated
07:25PM 33.5866 130.4502 248° West  Level Estimated